createdAt,value
2023-05-24T00:00:37.490Z,17.25
2023-05-24T00:03:05.076Z,17.30
2023-05-24T00:05:32.209Z,17.42
2023-05-24T00:07:59.943Z,17.42
2023-05-24T00:10:26.853Z,17.42
2023-05-24T00:12:53.678Z,17.36
2023-05-24T00:15:20.560Z,17.29
2023-05-24T00:17:47.553Z,17.14
2023-05-24T00:20:14.684Z,16.73
2023-05-24T00:22:42.327Z,16.96
2023-05-24T00:25:09.535Z,16.88
2023-05-24T00:27:37.320Z,17.15
2023-05-24T00:30:06.201Z,17.15
2023-05-24T00:32:33.405Z,17.20
2023-05-24T00:35:00.370Z,17.25
2023-05-24T00:37:27.478Z,17.31
2023-05-24T00:39:54.349Z,17.34
2023-05-24T00:42:21.207Z,17.36
2023-05-24T00:44:48.099Z,17.39
2023-05-24T00:47:16.063Z,17.36
2023-05-24T00:49:43.164Z,17.30
2023-05-24T00:52:10.297Z,17.37
2023-05-24T00:54:37.236Z,17.45
2023-05-24T00:57:04.402Z,17.53
2023-05-24T00:59:31.309Z,17.45
2023-05-24T01:01:58.246Z,17.42
2023-05-24T01:04:26.015Z,17.42
2023-05-24T01:07:26.842Z,17.48
2023-05-24T01:10:40.748Z,17.48
2023-05-24T01:13:26.106Z,17.50
2023-05-24T01:15:58.882Z,17.45
2023-05-24T01:18:48.816Z,17.47
2023-05-24T01:21:51.421Z,17.43
2023-05-24T01:24:44.429Z,17.39
2023-05-24T01:27:13.295Z,17.40
2023-05-24T01:29:41.096Z,17.42
2023-05-24T01:32:08.192Z,17.42
2023-05-24T01:34:35.311Z,17.42
2023-05-24T01:37:02.182Z,17.27
2023-05-24T01:39:29.851Z,17.36
2023-05-24T01:42:36.777Z,17.33
2023-05-24T01:45:25.917Z,17.35
2023-05-24T01:48:19.230Z,17.31
2023-05-24T01:50:53.424Z,17.29
2023-05-24T01:53:28.997Z,17.38
2023-05-24T01:55:57.429Z,17.38
2023-05-24T01:58:27.059Z,17.41
2023-05-24T02:00:54.276Z,17.37
2023-05-24T02:03:21.811Z,17.40
2023-05-24T02:05:49.077Z,17.28
2023-05-24T02:08:16.628Z,17.14
2023-05-24T02:10:43.932Z,17.23
2023-05-24T02:13:10.991Z,17.16
2023-05-24T02:15:37.912Z,17.04
2023-05-24T02:18:08.099Z,17.07
2023-05-24T02:20:37.076Z,17.06
2023-05-24T02:23:04.772Z,16.97
2023-05-24T02:25:32.800Z,16.97
2023-05-24T02:28:00.519Z,16.89
2023-05-24T02:30:27.609Z,16.98
2023-05-24T02:32:54.515Z,16.87
2023-05-24T02:35:21.709Z,16.75
2023-05-24T02:37:49.149Z,16.83
2023-05-24T02:40:16.190Z,16.72
2023-05-24T02:42:43.043Z,16.68
2023-05-24T02:45:10.383Z,16.64
2023-05-24T02:47:37.385Z,16.58
2023-05-24T02:50:04.716Z,16.27
2023-05-24T02:52:31.674Z,16.40
2023-05-24T02:54:58.552Z,16.35
2023-05-24T02:57:25.503Z,16.32
2023-05-24T02:59:52.938Z,16.35
2023-05-24T03:02:22.034Z,16.22
2023-05-24T03:04:48.933Z,16.19
2023-05-24T03:07:15.941Z,16.09
2023-05-24T03:09:43.109Z,16.08
2023-05-24T03:12:10.203Z,16.00
2023-05-24T03:14:37.044Z,16.01
2023-05-24T03:17:04.123Z,16.00
2023-05-24T03:19:31.021Z,15.97
2023-05-24T03:21:57.972Z,15.92
2023-05-24T03:24:26.036Z,15.85
2023-05-24T03:26:52.962Z,15.87
2023-05-24T03:29:19.874Z,15.79
2023-05-24T03:31:46.810Z,15.77
2023-05-24T03:34:13.689Z,15.62
2023-05-24T03:36:40.598Z,15.62
2023-05-24T03:39:07.859Z,15.59
2023-05-24T03:41:34.826Z,15.74
2023-05-24T03:44:01.753Z,15.72
2023-05-24T03:46:28.688Z,15.54
2023-05-24T03:48:55.730Z,15.72
2023-05-24T03:51:29.469Z,15.75
2023-05-24T03:53:57.484Z,15.66
2023-05-24T03:56:26.557Z,15.69
2023-05-24T03:58:53.724Z,15.69
2023-05-24T04:01:32.728Z,15.79
2023-05-24T04:04:01.708Z,15.87
2023-05-24T04:06:29.532Z,15.92
2023-05-24T04:09:01.171Z,15.88
2023-05-24T04:11:28.682Z,16.02
2023-05-24T04:13:57.134Z,15.80
2023-05-24T04:16:26.419Z,15.82
2023-05-24T04:18:56.708Z,15.91
2023-05-24T04:21:24.038Z,15.87
2023-05-24T04:23:51.096Z,15.78
2023-05-24T04:26:18.368Z,15.74
2023-05-24T04:28:48.471Z,15.90
2023-05-24T04:31:18.075Z,15.95
2023-05-24T04:33:44.973Z,16.08
2023-05-24T04:36:12.021Z,16.18
2023-05-24T04:38:40.949Z,16.33
2023-05-24T04:41:08.024Z,16.45
2023-05-24T04:43:35.091Z,16.51
2023-05-24T04:46:02.185Z,16.43
2023-05-24T04:48:29.355Z,16.69
2023-05-24T04:50:58.374Z,16.79
2023-05-24T04:53:25.726Z,16.92
2023-05-24T04:55:53.298Z,16.93
2023-05-24T04:58:20.268Z,17.07
2023-05-24T05:00:47.316Z,17.04
2023-05-24T05:03:14.385Z,17.26
2023-05-24T05:05:41.330Z,17.40
2023-05-24T05:08:08.188Z,17.57
2023-05-24T05:10:36.362Z,17.59
2023-05-24T05:13:03.550Z,17.68
2023-05-24T05:15:30.699Z,17.45
2023-05-24T05:17:57.693Z,17.40
2023-05-24T05:20:25.906Z,17.56
2023-05-24T05:22:52.899Z,17.65
2023-05-24T05:25:19.907Z,17.48
2023-05-24T05:27:46.828Z,17.42
2023-05-24T05:30:14.126Z,17.31
2023-05-24T05:32:41.279Z,17.05
2023-05-24T05:35:08.911Z,16.96
2023-05-24T05:37:35.962Z,16.97
2023-05-24T05:40:04.454Z,17.11
2023-05-24T05:42:31.340Z,17.44
2023-05-24T05:44:58.314Z,17.78
2023-05-24T05:47:25.249Z,18.16
2023-05-24T05:49:52.151Z,18.58
2023-05-24T05:52:19.038Z,18.65
2023-05-24T05:54:45.980Z,18.86
2023-05-24T05:57:12.993Z,18.79
2023-05-24T05:59:39.865Z,19.11
2023-05-24T06:02:07.431Z,19.22
2023-05-24T06:04:34.797Z,19.25
2023-05-24T06:07:01.799Z,18.97
2023-05-24T06:09:28.724Z,18.87
2023-05-24T06:11:55.655Z,19.35
2023-05-24T06:14:25.112Z,19.12
2023-05-24T06:16:54.387Z,19.06
2023-05-24T06:19:21.857Z,19.40
2023-05-24T06:21:50.573Z,19.80
2023-05-24T06:24:22.228Z,18.99
2023-05-24T06:26:51.915Z,18.27
2023-05-24T06:29:22.832Z,17.69
2023-05-24T06:31:50.951Z,17.19
2023-05-24T06:34:21.686Z,17.21
2023-05-24T06:36:50.939Z,17.41
2023-05-24T06:39:17.964Z,17.48
2023-05-24T06:41:46.509Z,18.16
2023-05-24T06:44:13.740Z,18.79
2023-05-24T06:46:40.948Z,19.01
2023-05-24T06:49:08.565Z,19.12
2023-05-24T06:51:35.975Z,18.51
2023-05-24T06:54:02.931Z,18.44
2023-05-24T06:56:30.003Z,18.44
2023-05-24T06:58:57.316Z,18.31
2023-05-24T07:01:24.234Z,18.93
2023-05-24T07:03:51.693Z,19.65
2023-05-24T07:06:18.784Z,18.68
2023-05-24T07:08:45.720Z,19.69
2023-05-24T07:11:12.656Z,19.97
2023-05-24T07:13:39.621Z,19.40
2023-05-24T07:16:07.099Z,19.39
2023-05-24T07:18:34.087Z,20.01
2023-05-24T07:21:01.185Z,19.79
2023-05-24T07:23:28.364Z,20.02
2023-05-24T07:25:55.326Z,19.87
2023-05-24T07:28:22.469Z,19.34
2023-05-24T07:30:49.622Z,18.80
2023-05-24T07:33:16.832Z,19.68
2023-05-24T07:35:45.807Z,19.30
2023-05-24T07:38:12.859Z,19.37
2023-05-24T07:40:39.821Z,19.54
2023-05-24T07:43:06.825Z,19.77
2023-05-24T07:45:34.149Z,19.38
2023-05-24T07:48:01.711Z,19.79
2023-05-24T07:50:29.440Z,19.61
2023-05-24T07:52:59.411Z,20.18
2023-05-24T07:55:27.932Z,19.69
2023-05-24T07:57:54.905Z,19.16
2023-05-24T08:00:23.108Z,19.66
2023-05-24T08:02:50.352Z,19.76
2023-05-24T08:05:18.202Z,19.69
2023-05-24T08:07:45.635Z,20.07
2023-05-24T08:10:13.891Z,20.40
2023-05-24T08:12:41.895Z,20.47
2023-05-24T08:15:09.395Z,20.59
2023-05-24T08:17:37.128Z,20.39
2023-05-24T08:20:13.833Z,20.67
2023-05-24T08:22:40.977Z,21.06
2023-05-24T08:25:08.730Z,20.71
2023-05-24T08:27:35.768Z,21.12
2023-05-24T08:30:04.371Z,21.41
2023-05-24T08:32:32.347Z,21.70
2023-05-24T08:35:17.587Z,21.78
2023-05-24T08:37:47.438Z,21.57
2023-05-24T08:40:14.444Z,20.89
2023-05-24T08:42:41.817Z,20.14
2023-05-24T08:45:12.404Z,20.09
2023-05-24T08:47:39.919Z,20.01
2023-05-24T08:50:08.584Z,20.43
2023-05-24T08:52:36.632Z,19.89
2023-05-24T08:55:07.449Z,20.30
2023-05-24T08:57:39.925Z,20.84
2023-05-24T09:00:12.739Z,19.99
2023-05-24T09:02:42.119Z,20.15
2023-05-24T09:05:14.346Z,21.01
2023-05-24T09:07:44.288Z,20.52
2023-05-24T09:10:11.791Z,20.62
2023-05-24T09:12:40.678Z,20.42
2023-05-24T09:15:09.003Z,20.28
2023-05-24T09:17:37.948Z,20.71
2023-05-24T09:20:08.973Z,20.51
2023-05-24T09:22:40.810Z,20.65
2023-05-24T09:25:11.005Z,19.89
2023-05-24T09:27:38.517Z,19.30
2023-05-24T09:30:10.298Z,19.29
2023-05-24T09:32:38.006Z,20.01
2023-05-24T09:35:09.505Z,21.13
2023-05-24T09:37:38.525Z,21.32
2023-05-24T09:40:07.256Z,21.01
2023-05-24T09:42:34.220Z,20.99
2023-05-24T09:45:12.374Z,21.98
2023-05-24T09:47:41.929Z,21.94
2023-05-24T09:50:18.052Z,21.20
2023-05-24T09:52:45.556Z,20.55
2023-05-24T09:55:20.680Z,20.47
2023-05-24T09:58:08.134Z,20.47
2023-05-24T10:00:40.158Z,20.83
2023-05-24T10:03:11.179Z,21.01
2023-05-24T10:05:42.740Z,21.17
2023-05-24T10:08:10.701Z,21.16
2023-05-24T10:10:37.956Z,20.69
2023-05-24T10:13:05.370Z,21.15
2023-05-24T10:15:32.285Z,21.43
2023-05-24T10:18:10.433Z,21.39
2023-05-24T10:20:41.543Z,21.48
2023-05-24T10:23:11.086Z,21.09
2023-05-24T10:25:48.246Z,21.44
2023-05-24T10:28:16.397Z,21.66
2023-05-24T10:30:59.465Z,21.68
2023-05-24T10:33:26.652Z,22.27
2023-05-24T10:35:54.700Z,21.67
2023-05-24T10:38:24.458Z,21.27
2023-05-24T10:40:52.130Z,20.83
2023-05-24T10:43:19.536Z,20.78
2023-05-24T10:45:51.679Z,20.91
2023-05-24T10:48:24.894Z,20.47
2023-05-24T10:50:52.344Z,20.12
2023-05-24T10:53:22.634Z,19.82
2023-05-24T10:55:55.673Z,20.85
2023-05-24T10:58:30.626Z,21.87
2023-05-24T11:00:57.653Z,21.93
2023-05-24T11:03:25.263Z,22.25
2023-05-24T11:05:54.948Z,22.30
2023-05-24T11:08:35.833Z,23.27
2023-05-24T11:13:47.699Z,23.57
2023-05-24T11:16:37.337Z,22.70
2023-05-24T11:19:34.314Z,21.75
2023-05-24T11:22:07.896Z,22.32
2023-05-24T11:24:35.226Z,21.89
2023-05-24T11:27:03.552Z,22.24
2023-05-24T11:29:31.249Z,22.81
2023-05-24T11:32:05.304Z,22.08
2023-05-24T11:34:33.511Z,23.62
2023-05-24T11:37:01.877Z,23.17
2023-05-24T11:39:34.362Z,23.14
2023-05-24T11:42:04.820Z,23.27
2023-05-24T11:44:34.580Z,23.29
2023-05-24T11:47:03.312Z,23.58
2023-05-24T11:49:30.518Z,23.98
2023-05-24T11:51:59.264Z,23.62
2023-05-24T11:54:28.266Z,23.40
2023-05-24T11:56:55.650Z,22.22
2023-05-24T11:59:27.799Z,22.33
2023-05-24T12:02:06.060Z,22.60
2023-05-24T12:04:34.625Z,22.07
2023-05-24T12:07:02.155Z,21.72
2023-05-24T12:09:29.380Z,22.04
2023-05-24T12:11:58.211Z,22.62
2023-05-24T12:14:31.277Z,22.75
2023-05-24T12:16:58.929Z,22.60
2023-05-24T12:19:33.495Z,22.92
2023-05-24T12:22:06.693Z,23.22
2023-05-24T12:24:34.281Z,23.32
2023-05-24T12:27:07.553Z,23.43
2023-05-24T12:29:41.305Z,22.56
2023-05-24T12:32:14.758Z,22.49
2023-05-24T12:34:44.040Z,22.46
2023-05-24T12:37:13.330Z,22.75
2023-05-24T12:39:43.114Z,23.57
2023-05-24T12:42:12.558Z,24.56
2023-05-24T12:44:40.252Z,25.57
2023-05-24T12:47:08.807Z,25.04
2023-05-24T12:49:36.581Z,22.99
2023-05-24T12:52:04.027Z,22.60
2023-05-24T12:54:31.304Z,23.09
2023-05-24T12:57:00.462Z,22.58
2023-05-24T12:59:28.602Z,21.78
2023-05-24T13:01:56.048Z,21.50
2023-05-24T13:04:26.084Z,21.02
2023-05-24T13:06:53.130Z,21.69
2023-05-24T13:09:22.432Z,21.37
2023-05-24T13:11:49.569Z,22.08
2023-05-24T13:14:17.032Z,21.64
2023-05-24T13:16:44.532Z,21.57
2023-05-24T13:19:12.416Z,21.77
2023-05-24T13:21:39.960Z,22.14
2023-05-24T13:24:07.755Z,22.54
2023-05-24T13:26:38.191Z,23.06
2023-05-24T13:31:40.696Z,23.30
2023-05-24T13:34:09.220Z,23.11
2023-05-24T13:36:36.434Z,23.44
2023-05-24T13:39:13.914Z,23.55
2023-05-24T13:41:42.518Z,23.29
2023-05-24T13:44:10.158Z,22.69
2023-05-24T13:46:38.290Z,22.14
2023-05-24T13:49:06.043Z,21.88
2023-05-24T13:51:33.465Z,21.94
2023-05-24T13:54:01.147Z,21.74
2023-05-24T13:56:34.155Z,21.56
2023-05-24T13:59:03.550Z,22.64
2023-05-24T14:01:31.233Z,22.80
2023-05-24T14:03:58.791Z,23.77
2023-05-24T14:06:25.859Z,24.03
2023-05-24T14:08:53.355Z,24.41
2023-05-24T14:11:20.326Z,25.13
2023-05-24T14:16:19.700Z,26.66
2023-05-24T14:18:48.968Z,25.87
2023-05-24T14:21:18.379Z,24.55
2023-05-24T14:23:45.303Z,24.74
2023-05-24T14:26:12.172Z,25.19
2023-05-24T14:28:39.283Z,25.47
2023-05-24T14:31:06.408Z,25.34
2023-05-24T14:33:33.386Z,24.50
2023-05-24T14:36:00.430Z,24.90
2023-05-24T14:38:28.008Z,24.88
2023-05-24T14:40:56.939Z,24.50
2023-05-24T14:43:23.867Z,24.74
2023-05-24T14:45:50.820Z,25.07
2023-05-24T14:48:17.895Z,24.27
2023-05-24T14:50:44.890Z,24.07
2023-05-24T14:53:12.739Z,23.88
2023-05-24T14:55:42.156Z,23.56
2023-05-24T14:58:11.630Z,23.85
2023-05-24T15:00:40.135Z,24.40
2023-05-24T15:03:08.146Z,24.99
2023-05-24T15:05:36.356Z,26.06
2023-05-24T15:08:04.966Z,26.64
2023-05-24T15:10:31.974Z,27.23
2023-05-24T15:12:58.984Z,26.98
2023-05-24T15:15:25.864Z,27.04
2023-05-24T15:17:52.751Z,26.29
2023-05-24T15:20:19.912Z,27.53
2023-05-24T15:22:46.887Z,25.82
2023-05-24T15:25:13.819Z,25.85
2023-05-24T15:27:40.758Z,25.99
2023-05-24T15:30:08.312Z,25.52
2023-05-24T15:32:35.272Z,25.83
2023-05-24T15:35:02.543Z,25.67
2023-05-24T15:37:29.443Z,26.67
2023-05-24T15:39:56.367Z,27.02
2023-05-24T15:42:24.735Z,27.18
2023-05-24T15:44:51.807Z,27.23
2023-05-24T15:47:21.911Z,27.68
2023-05-24T15:49:49.823Z,26.75
2023-05-24T15:52:17.082Z,26.88
2023-05-24T15:54:44.132Z,26.55
2023-05-24T15:57:11.196Z,26.14
2023-05-24T15:59:38.708Z,25.95
2023-05-24T16:02:09.341Z,25.80
2023-05-24T16:04:36.375Z,25.70
2023-05-24T16:07:03.374Z,24.60
2023-05-24T16:09:30.501Z,23.31
2023-05-24T16:11:57.428Z,23.85
2023-05-24T16:14:24.424Z,23.53
2023-05-24T16:16:51.356Z,23.53
2023-05-24T16:19:18.474Z,23.28
2023-05-24T16:21:45.767Z,23.26
2023-05-24T16:24:12.645Z,23.17
2023-05-24T16:26:39.571Z,23.05
2023-05-24T16:29:07.112Z,22.75
2023-05-24T16:31:34.257Z,22.73
2023-05-24T16:34:01.259Z,22.73
2023-05-24T16:36:28.293Z,22.63
2023-05-24T16:38:55.193Z,22.54
2023-05-24T16:41:22.200Z,22.45
2023-05-24T16:43:49.313Z,22.15
2023-05-24T16:46:16.313Z,22.06
2023-05-24T16:48:43.234Z,21.94
2023-05-24T16:51:10.377Z,21.92
2023-05-24T16:53:37.291Z,21.79
2023-05-24T16:56:04.244Z,21.67
2023-05-24T16:58:31.566Z,21.52
2023-05-24T17:00:58.930Z,21.41
2023-05-24T17:03:30.101Z,21.26
2023-05-24T17:06:03.542Z,21.14
2023-05-24T17:08:37.281Z,20.95
2023-05-24T17:11:05.391Z,20.85
2023-05-24T17:13:33.262Z,20.72
2023-05-24T17:16:00.809Z,20.63
2023-05-24T17:18:28.414Z,20.53
2023-05-24T17:21:02.951Z,20.33
2023-05-24T17:23:36.480Z,20.27
2023-05-24T17:26:04.698Z,20.11
2023-05-24T17:28:34.528Z,19.90
2023-05-24T17:31:02.103Z,19.82
2023-05-24T17:33:31.488Z,19.75
2023-05-24T17:36:02.549Z,19.66
2023-05-24T17:38:32.888Z,19.56
2023-05-24T17:40:59.995Z,19.46
2023-05-24T17:43:32.618Z,19.33
2023-05-24T17:46:04.204Z,19.34
2023-05-24T17:48:32.604Z,19.23
2023-05-24T17:51:01.090Z,19.25
2023-05-24T17:53:33.452Z,19.22
2023-05-24T17:56:01.834Z,19.07
2023-05-24T17:58:35.547Z,19.06
2023-05-24T18:01:05.241Z,18.94
2023-05-24T18:03:33.560Z,18.93
2023-05-24T18:06:01.181Z,18.86
2023-05-24T18:08:28.196Z,18.73
2023-05-24T18:10:55.068Z,18.78
2023-05-24T18:13:22.151Z,18.75
2023-05-24T18:15:50.335Z,18.67
2023-05-24T18:18:17.686Z,18.64
2023-05-24T18:20:44.620Z,18.62
2023-05-24T18:23:11.891Z,18.50
2023-05-24T18:25:38.844Z,18.40
2023-05-24T18:28:05.822Z,18.34
2023-05-24T18:30:32.722Z,18.24
2023-05-24T18:33:07.160Z,18.22
2023-05-24T18:35:35.032Z,18.14
2023-05-24T18:38:01.896Z,18.09
2023-05-24T18:40:28.812Z,17.96
2023-05-24T18:42:55.702Z,17.95
2023-05-24T18:45:23.018Z,17.82
2023-05-24T18:47:49.907Z,17.85
2023-05-24T18:50:17.134Z,17.80
2023-05-24T18:52:44.131Z,17.71
2023-05-24T18:55:11.074Z,17.65
2023-05-24T18:57:38.560Z,17.65
2023-05-24T19:00:07.395Z,17.55
2023-05-24T19:02:38.548Z,17.56
2023-05-24T19:05:07.792Z,17.42
2023-05-24T19:07:36.045Z,17.36
2023-05-24T19:10:04.126Z,17.32
2023-05-24T19:12:31.284Z,17.28
2023-05-24T19:14:58.501Z,17.27
2023-05-24T19:17:25.752Z,17.25
2023-05-24T19:19:52.781Z,17.13
2023-05-24T19:22:19.939Z,17.08
2023-05-24T19:24:46.985Z,17.04
2023-05-24T19:27:13.980Z,16.98
2023-05-24T19:29:41.248Z,16.93
2023-05-24T19:32:08.909Z,16.88
2023-05-24T19:34:37.316Z,16.86
2023-05-24T19:37:04.659Z,16.79
2023-05-24T19:39:31.601Z,16.67
2023-05-24T19:41:58.526Z,16.62
2023-05-24T19:44:25.514Z,16.58
2023-05-24T19:46:52.363Z,16.52
2023-05-24T19:49:19.368Z,16.52
2023-05-24T19:51:46.344Z,16.48
2023-05-24T19:54:13.764Z,16.45
2023-05-24T19:56:40.665Z,16.46
2023-05-24T19:59:07.629Z,16.43
2023-05-24T20:01:34.619Z,16.38
2023-05-24T20:04:01.783Z,16.35
2023-05-24T20:06:29.563Z,16.37
2023-05-24T20:08:58.775Z,16.35
2023-05-24T20:11:26.592Z,16.34
2023-05-24T20:13:53.508Z,16.33
2023-05-24T20:16:20.501Z,16.34
2023-05-24T20:18:47.464Z,16.32
2023-05-24T20:21:15.285Z,16.32
2023-05-24T20:23:42.292Z,16.27
2023-05-24T20:26:09.265Z,16.23
2023-05-24T20:28:36.201Z,16.22
2023-05-24T20:31:03.377Z,16.19
2023-05-24T20:33:30.302Z,16.19
2023-05-24T20:35:58.264Z,16.21
2023-05-24T20:38:25.144Z,16.13
2023-05-24T20:40:52.001Z,16.15
2023-05-24T20:43:18.861Z,16.18
2023-05-24T20:45:46.087Z,16.14
2023-05-24T20:48:13.273Z,16.15
2023-05-24T20:50:40.241Z,16.07
2023-05-24T20:53:07.221Z,16.10
2023-05-24T20:55:34.145Z,16.07
2023-05-24T20:58:01.051Z,16.10
2023-05-24T21:00:27.954Z,16.01
2023-05-24T21:02:54.857Z,15.97
2023-05-24T21:05:21.923Z,15.91
2023-05-24T21:07:48.822Z,15.90
2023-05-24T21:10:18.603Z,15.85
2023-05-24T21:12:46.204Z,15.79
2023-05-24T21:15:13.226Z,15.81
2023-05-24T21:17:40.146Z,15.80
2023-05-24T21:20:07.743Z,15.77
2023-05-24T21:22:34.853Z,15.83
2023-05-24T21:25:01.948Z,15.85
2023-05-24T21:27:28.904Z,15.82
2023-05-24T21:29:55.947Z,15.75
2023-05-24T21:32:22.833Z,15.75
2023-05-24T21:34:49.919Z,15.72
2023-05-24T21:37:17.543Z,15.68
2023-05-24T21:39:44.634Z,15.56
2023-05-24T21:42:11.626Z,15.61
2023-05-24T21:44:38.519Z,15.56
2023-05-24T21:47:05.709Z,15.60
2023-05-24T21:49:32.548Z,15.63
2023-05-24T21:51:59.508Z,15.56
2023-05-24T21:54:26.405Z,15.52
2023-05-24T21:56:53.315Z,15.54
2023-05-24T21:59:21.363Z,15.49
2023-05-24T22:01:48.723Z,15.57
2023-05-24T22:04:15.975Z,15.62
2023-05-24T22:06:45.864Z,15.62
2023-05-24T22:09:13.669Z,15.59
2023-05-24T22:11:43.206Z,15.66
2023-05-24T22:14:10.878Z,15.72
2023-05-24T22:16:38.078Z,15.73
2023-05-24T22:19:14.466Z,15.77
2023-05-24T22:21:42.815Z,15.81
2023-05-24T22:24:10.623Z,15.85
2023-05-24T22:26:38.227Z,15.84
2023-05-24T22:29:05.247Z,15.81
2023-05-24T22:31:36.231Z,15.87
2023-05-24T22:34:03.413Z,15.87
2023-05-24T22:36:33.814Z,15.89
2023-05-24T22:39:01.784Z,15.78
2023-05-24T22:41:29.059Z,15.80
2023-05-24T22:43:57.213Z,15.85
2023-05-24T22:46:24.763Z,15.87
2023-05-24T22:48:52.350Z,15.91
2023-05-24T22:51:20.481Z,15.88
2023-05-24T22:53:48.295Z,15.90
2023-05-24T22:56:15.824Z,15.94
2023-05-24T22:58:42.841Z,15.94
2023-05-24T23:01:09.791Z,15.90
2023-05-24T23:03:36.757Z,15.84
2023-05-24T23:06:04.515Z,15.82
2023-05-24T23:08:32.872Z,15.88
2023-05-24T23:11:10.059Z,15.92
2023-05-24T23:13:38.012Z,15.89
2023-05-24T23:16:05.461Z,15.80
2023-05-24T23:18:32.945Z,15.68
2023-05-24T23:21:03.025Z,15.68
2023-05-24T23:23:30.015Z,15.62
2023-05-24T23:25:56.896Z,15.74
2023-05-24T23:28:23.766Z,15.75
2023-05-24T23:30:50.808Z,15.75
2023-05-24T23:33:17.717Z,15.64
2023-05-24T23:35:44.997Z,15.70
2023-05-24T23:38:13.669Z,15.69
2023-05-24T23:40:40.872Z,15.67
2023-05-24T23:43:07.838Z,15.63
2023-05-24T23:45:34.928Z,15.64
2023-05-24T23:48:02.325Z,15.67
2023-05-24T23:50:30.283Z,15.64
2023-05-24T23:52:59.898Z,15.52
2023-05-24T23:55:26.784Z,15.58
2023-05-24T23:57:53.895Z,15.44
